sensor_id;sensor_type;location;lat;lon;timestamp;P1;durP1;ratioP1;P2;durP2;ratioP2
17592;SDS011;8915;51.760;14.300;2023-06-22T00:00:48;8.47;;;7.63;;
17592;SDS011;8915;51.760;14.300;2023-06-22T00:03:16;11.40;;;8.43;;
17592;SDS011;8915;51.760;14.300;2023-06-22T00:05:43;9.67;;;8.67;;
17592;SDS011;8915;51.760;14.300;2023-06-22T00:08:10;9.50;;;8.50;;
17592;SDS011;8915;51.760;14.300;2023-06-22T00:10:37;11.37;;;10.03;;
17592;SDS011;8915;51.760;14.300;2023-06-22T00:13:05;9.93;;;8.07;;
17592;SDS011;8915;51.760;14.300;2023-06-22T00:15:31;10.13;;;9.13;;
17592;SDS011;8915;51.760;14.300;2023-06-22T00:17:58;9.93;;;8.90;;
17592;SDS011;8915;51.760;14.300;2023-06-22T00:20:24;11.07;;;9.87;;
17592;SDS011;8915;51.760;14.300;2023-06-22T00:22:52;10.77;;;9.63;;
17592;SDS011;8915;51.760;14.300;2023-06-22T00:25:19;11.67;;;9.23;;
17592;SDS011;8915;51.760;14.300;2023-06-22T00:27:45;11.53;;;10.33;;
17592;SDS011;8915;51.760;14.300;2023-06-22T00:30:13;10.60;;;9.50;;
17592;SDS011;8915;51.760;14.300;2023-06-22T00:32:41;10.63;;;9.40;;
17592;SDS011;8915;51.760;14.300;2023-06-22T00:35:07;10.63;;;9.53;;
17592;SDS011;8915;51.760;14.300;2023-06-22T00:37:35;10.70;;;9.60;;
17592;SDS011;8915;51.760;14.300;2023-06-22T00:40:04;11.33;;;9.83;;
17592;SDS011;8915;51.760;14.300;2023-06-22T00:42:31;11.07;;;9.50;;
17592;SDS011;8915;51.760;14.300;2023-06-22T00:44:57;12.03;;;9.63;;
17592;SDS011;8915;51.760;14.300;2023-06-22T00:47:26;10.73;;;9.63;;
17592;SDS011;8915;51.760;14.300;2023-06-22T00:49:53;11.07;;;9.87;;
17592;SDS011;8915;51.760;14.300;2023-06-22T00:52:20;11.83;;;10.57;;
17592;SDS011;8915;51.760;14.300;2023-06-22T00:54:52;11.80;;;10.43;;
17592;SDS011;8915;51.760;14.300;2023-06-22T00:57:20;11.27;;;10.07;;
17592;SDS011;8915;51.760;14.300;2023-06-22T00:59:54;10.70;;;9.50;;
17592;SDS011;8915;51.760;14.300;2023-06-22T01:02:21;10.97;;;9.47;;
17592;SDS011;8915;51.760;14.300;2023-06-22T01:04:49;11.97;;;10.67;;
17592;SDS011;8915;51.760;14.300;2023-06-22T01:07:17;13.13;;;10.73;;
17592;SDS011;8915;51.760;14.300;2023-06-22T01:09:54;12.13;;;10.50;;
17592;SDS011;8915;51.760;14.300;2023-06-22T01:12:29;12.07;;;10.87;;
17592;SDS011;8915;51.760;14.300;2023-06-22T01:15:02;10.77;;;9.67;;
17592;SDS011;8915;51.760;14.300;2023-06-22T01:17:32;11.50;;;10.30;;
17592;SDS011;8915;51.760;14.300;2023-06-22T01:20:02;11.70;;;10.50;;
17592;SDS011;8915;51.760;14.300;2023-06-22T01:22:30;11.77;;;10.23;;
17592;SDS011;8915;51.760;14.300;2023-06-22T01:25:09;10.70;;;9.60;;
17592;SDS011;8915;51.760;14.300;2023-06-22T01:27:40;10.53;;;9.43;;
17592;SDS011;8915;51.760;14.300;2023-06-22T01:30:18;11.30;;;10.10;;
17592;SDS011;8915;51.760;14.300;2023-06-22T01:32:45;11.63;;;10.17;;
17592;SDS011;8915;51.760;14.300;2023-06-22T01:35:14;12.10;;;9.80;;
17592;SDS011;8915;51.760;14.300;2023-06-22T01:37:41;10.80;;;9.67;;
17592;SDS011;8915;51.760;14.300;2023-06-22T01:40:10;11.53;;;9.87;;
17592;SDS011;8915;51.760;14.300;2023-06-22T01:42:37;12.37;;;10.73;;
17592;SDS011;8915;51.760;14.300;2023-06-22T01:45:06;11.80;;;10.23;;
17592;SDS011;8915;51.760;14.300;2023-06-22T01:47:38;12.87;;;10.20;;
17592;SDS011;8915;51.760;14.300;2023-06-22T01:50:05;12.23;;;10.93;;
17592;SDS011;8915;51.760;14.300;2023-06-22T01:52:32;12.23;;;10.93;;
17592;SDS011;8915;51.760;14.300;2023-06-22T01:54:59;13.20;;;11.03;;
17592;SDS011;8915;51.760;14.300;2023-06-22T01:57:26;13.83;;;11.27;;
17592;SDS011;8915;51.760;14.300;2023-06-22T01:59:56;12.03;;;10.83;;
17592;SDS011;8915;51.760;14.300;2023-06-22T02:02:27;16.33;;;11.93;;
17592;SDS011;8915;51.760;14.300;2023-06-22T02:05:01;14.17;;;11.97;;
17592;SDS011;8915;51.760;14.300;2023-06-22T02:07:32;12.30;;;11.00;;
17592;SDS011;8915;51.760;14.300;2023-06-22T02:10:05;12.53;;;11.10;;
17592;SDS011;8915;51.760;14.300;2023-06-22T02:12:33;12.60;;;11.03;;
17592;SDS011;8915;51.760;14.300;2023-06-22T02:15:02;14.33;;;11.33;;
17592;SDS011;8915;51.760;14.300;2023-06-22T02:17:29;12.57;;;10.90;;
17592;SDS011;8915;51.760;14.300;2023-06-22T02:20:00;12.70;;;10.63;;
17592;SDS011;8915;51.760;14.300;2023-06-22T02:22:28;12.07;;;10.77;;
17592;SDS011;8915;51.760;14.300;2023-06-22T02:24:55;14.77;;;11.27;;
17592;SDS011;8915;51.760;14.300;2023-06-22T02:27:23;12.00;;;10.40;;
17592;SDS011;8915;51.760;14.300;2023-06-22T02:29:50;16.93;;;12.07;;
17592;SDS011;8915;51.760;14.300;2023-06-22T02:32:17;13.37;;;11.97;;
17592;SDS011;8915;51.760;14.300;2023-06-22T02:34:45;16.77;;;11.53;;
17592;SDS011;8915;51.760;14.300;2023-06-22T02:37:16;11.27;;;10.07;;
17592;SDS011;8915;51.760;14.300;2023-06-22T02:39:43;12.07;;;10.20;;
17592;SDS011;8915;51.760;14.300;2023-06-22T02:42:09;12.37;;;11.13;;
17592;SDS011;8915;51.760;14.300;2023-06-22T02:44:36;12.53;;;10.83;;
17592;SDS011;8915;51.760;14.300;2023-06-22T02:47:03;12.30;;;10.97;;
17592;SDS011;8915;51.760;14.300;2023-06-22T02:49:30;14.20;;;12.70;;
17592;SDS011;8915;51.760;14.300;2023-06-22T02:51:57;13.83;;;11.30;;
17592;SDS011;8915;51.760;14.300;2023-06-22T02:54:24;12.20;;;10.00;;
17592;SDS011;8915;51.760;14.300;2023-06-22T02:56:53;12.10;;;10.50;;
17592;SDS011;8915;51.760;14.300;2023-06-22T02:59:21;12.20;;;10.97;;
17592;SDS011;8915;51.760;14.300;2023-06-22T03:01:50;12.40;;;11.10;;
17592;SDS011;8915;51.760;14.300;2023-06-22T03:04:27;12.50;;;11.17;;
17592;SDS011;8915;51.760;14.300;2023-06-22T03:06:53;12.37;;;11.00;;
17592;SDS011;8915;51.760;14.300;2023-06-22T03:09:19;12.53;;;10.97;;
17592;SDS011;8915;51.760;14.300;2023-06-22T03:11:47;12.57;;;11.27;;
17592;SDS011;8915;51.760;14.300;2023-06-22T03:14:14;12.57;;;11.27;;
17592;SDS011;8915;51.760;14.300;2023-06-22T03:16:41;13.17;;;11.87;;
17592;SDS011;8915;51.760;14.300;2023-06-22T03:19:07;12.97;;;11.63;;
17592;SDS011;8915;51.760;14.300;2023-06-22T03:21:34;12.60;;;11.30;;
17592;SDS011;8915;51.760;14.300;2023-06-22T03:24:03;12.80;;;11.50;;
17592;SDS011;8915;51.760;14.300;2023-06-22T03:26:31;15.00;;;11.63;;
17592;SDS011;8915;51.760;14.300;2023-06-22T03:28:58;14.27;;;12.27;;
17592;SDS011;8915;51.760;14.300;2023-06-22T03:31:27;15.00;;;12.40;;
17592;SDS011;8915;51.760;14.300;2023-06-22T03:33:54;14.50;;;12.47;;
17592;SDS011;8915;51.760;14.300;2023-06-22T03:36:22;14.63;;;13.13;;
17592;SDS011;8915;51.760;14.300;2023-06-22T03:38:49;14.80;;;13.30;;
17592;SDS011;8915;51.760;14.300;2023-06-22T03:41:16;14.83;;;12.90;;
17592;SDS011;8915;51.760;14.300;2023-06-22T03:43:43;16.07;;;13.57;;
17592;SDS011;8915;51.760;14.300;2023-06-22T03:46:11;16.13;;;14.43;;
17592;SDS011;8915;51.760;14.300;2023-06-22T03:48:37;13.80;;;12.07;;
17592;SDS011;8915;51.760;14.300;2023-06-22T03:51:04;15.03;;;13.43;;
17592;SDS011;8915;51.760;14.300;2023-06-22T03:53:30;16.23;;;14.57;;
17592;SDS011;8915;51.760;14.300;2023-06-22T03:55:56;16.23;;;14.53;;
17592;SDS011;8915;51.760;14.300;2023-06-22T03:58:23;16.10;;;14.40;;
17592;SDS011;8915;51.760;14.300;2023-06-22T04:00:50;15.53;;;13.93;;
17592;SDS011;8915;51.760;14.300;2023-06-22T04:03:19;15.67;;;14.07;;
17592;SDS011;8915;51.760;14.300;2023-06-22T04:05:45;16.80;;;14.93;;
17592;SDS011;8915;51.760;14.300;2023-06-22T04:08:12;16.57;;;14.87;;
17592;SDS011;8915;51.760;14.300;2023-06-22T04:10:39;16.10;;;14.23;;
17592;SDS011;8915;51.760;14.300;2023-06-22T04:13:06;16.73;;;14.90;;
17592;SDS011;8915;51.760;14.300;2023-06-22T04:15:32;19.57;;;15.40;;
17592;SDS011;8915;51.760;14.300;2023-06-22T04:17:59;16.50;;;14.80;;
17592;SDS011;8915;51.760;14.300;2023-06-22T04:20:27;18.33;;;15.13;;
17592;SDS011;8915;51.760;14.300;2023-06-22T04:22:53;15.67;;;14.07;;
17592;SDS011;8915;51.760;14.300;2023-06-22T04:25:20;17.43;;;15.23;;
17592;SDS011;8915;51.760;14.300;2023-06-22T04:27:47;18.17;;;14.77;;
17592;SDS011;8915;51.760;14.300;2023-06-22T04:30:13;17.47;;;14.97;;
17592;SDS011;8915;51.760;14.300;2023-06-22T04:32:41;16.23;;;14.53;;
17592;SDS011;8915;51.760;14.300;2023-06-22T04:35:08;16.83;;;15.13;;
17592;SDS011;8915;51.760;14.300;2023-06-22T04:37:36;17.63;;;14.93;;
17592;SDS011;8915;51.760;14.300;2023-06-22T04:40:04;20.60;;;15.60;;
17592;SDS011;8915;51.760;14.300;2023-06-22T04:42:33;17.27;;;15.07;;
17592;SDS011;8915;51.760;14.300;2023-06-22T04:45:00;17.73;;;15.73;;
17592;SDS011;8915;51.760;14.300;2023-06-22T04:47:26;17.23;;;15.43;;
17592;SDS011;8915;51.760;14.300;2023-06-22T04:49:53;17.23;;;15.53;;
17592;SDS011;8915;51.760;14.300;2023-06-22T04:52:19;17.93;;;16.07;;
17592;SDS011;8915;51.760;14.300;2023-06-22T04:54:47;16.97;;;15.17;;
17592;SDS011;8915;51.760;14.300;2023-06-22T04:57:20;17.23;;;15.43;;
17592;SDS011;8915;51.760;14.300;2023-06-22T04:59:55;16.83;;;14.67;;
17592;SDS011;8915;51.760;14.300;2023-06-22T05:02:22;17.97;;;15.37;;
17592;SDS011;8915;51.760;14.300;2023-06-22T05:04:57;16.50;;;14.17;;
17592;SDS011;8915;51.760;14.300;2023-06-22T05:07:23;16.40;;;14.30;;
17592;SDS011;8915;51.760;14.300;2023-06-22T05:09:51;17.07;;;14.07;;
17592;SDS011;8915;51.760;14.300;2023-06-22T05:12:18;16.47;;;14.77;;
17592;SDS011;8915;51.760;14.300;2023-06-22T05:14:44;16.80;;;15.03;;
17592;SDS011;8915;51.760;14.300;2023-06-22T05:17:11;20.60;;;14.70;;
17592;SDS011;8915;51.760;14.300;2023-06-22T05:19:39;14.23;;;12.77;;
17592;SDS011;8915;51.760;14.300;2023-06-22T05:22:14;15.80;;;13.03;;
17592;SDS011;8915;51.760;14.300;2023-06-22T05:24:41;14.77;;;13.17;;
17592;SDS011;8915;51.760;14.300;2023-06-22T05:27:08;14.97;;;13.13;;
17592;SDS011;8915;51.760;14.300;2023-06-22T05:29:35;14.63;;;13.13;;
17592;SDS011;8915;51.760;14.300;2023-06-22T05:32:02;15.70;;;13.10;;
17592;SDS011;8915;51.760;14.300;2023-06-22T05:34:29;14.20;;;12.27;;
17592;SDS011;8915;51.760;14.300;2023-06-22T05:36:55;14.10;;;12.53;;
17592;SDS011;8915;51.760;14.300;2023-06-22T05:39:23;15.57;;;12.63;;
17592;SDS011;8915;51.760;14.300;2023-06-22T05:41:50;13.87;;;12.43;;
17592;SDS011;8915;51.760;14.300;2023-06-22T05:44:18;14.60;;;12.10;;
17592;SDS011;8915;51.760;14.300;2023-06-22T05:46:44;15.63;;;12.57;;
17592;SDS011;8915;51.760;14.300;2023-06-22T05:49:11;17.73;;;12.50;;
17592;SDS011;8915;51.760;14.300;2023-06-22T05:51:38;17.43;;;12.60;;
17592;SDS011;8915;51.760;14.300;2023-06-22T05:54:05;13.87;;;12.37;;
17592;SDS011;8915;51.760;14.300;2023-06-22T05:56:33;14.80;;;12.23;;
17592;SDS011;8915;51.760;14.300;2023-06-22T05:58:59;13.33;;;11.93;;
17592;SDS011;8915;51.760;14.300;2023-06-22T06:01:27;15.18;;;11.70;;
17592;SDS011;8915;51.760;14.300;2023-06-22T06:03:53;14.65;;;12.60;;
17592;SDS011;8915;51.760;14.300;2023-06-22T06:06:19;12.70;;;11.45;;
17592;SDS011;8915;51.760;14.300;2023-06-22T06:08:47;12.73;;;11.27;;
17592;SDS011;8915;51.760;14.300;2023-06-22T06:11:14;12.10;;;10.88;;
17592;SDS011;8915;51.760;14.300;2023-06-22T06:13:40;12.05;;;10.80;;
17592;SDS011;8915;51.760;14.300;2023-06-22T06:16:07;11.90;;;10.65;;
17592;SDS011;8915;51.760;14.300;2023-06-22T06:18:34;12.18;;;10.57;;
17592;SDS011;8915;51.760;14.300;2023-06-22T06:21:02;12.55;;;11.02;;
17592;SDS011;8915;51.760;14.300;2023-06-22T06:23:29;11.48;;;10.32;;
17592;SDS011;8915;51.760;14.300;2023-06-22T06:25:55;13.18;;;11.13;;
17592;SDS011;8915;51.760;14.300;2023-06-22T06:28:21;11.18;;;10.02;;
17592;SDS011;8915;51.760;14.300;2023-06-22T06:30:48;12.40;;;11.20;;
17592;SDS011;8915;51.760;14.300;2023-06-22T06:33:16;13.13;;;11.27;;
17592;SDS011;8915;51.760;14.300;2023-06-22T06:35:44;13.40;;;10.40;;
17592;SDS011;8915;51.760;14.300;2023-06-22T06:38:11;10.65;;;9.57;;
17592;SDS011;8915;51.760;14.300;2023-06-22T06:40:37;11.73;;;10.57;;
17592;SDS011;8915;51.760;14.300;2023-06-22T06:43:03;10.57;;;9.40;;
17592;SDS011;8915;51.760;14.300;2023-06-22T06:45:30;10.88;;;9.45;;
17592;SDS011;8915;51.760;14.300;2023-06-22T06:47:58;11.43;;;9.35;;
17592;SDS011;8915;51.760;14.300;2023-06-22T06:50:24;10.82;;;9.73;;
17592;SDS011;8915;51.760;14.300;2023-06-22T06:52:52;11.93;;;9.07;;
17592;SDS011;8915;51.760;14.300;2023-06-22T06:55:18;10.55;;;9.52;;
17592;SDS011;8915;51.760;14.300;2023-06-22T06:57:45;11.13;;;9.07;;
17592;SDS011;8915;51.760;14.300;2023-06-22T07:00:14;10.23;;;9.00;;
17592;SDS011;8915;51.760;14.300;2023-06-22T07:02:41;11.30;;;9.27;;
17592;SDS011;8915;51.760;14.300;2023-06-22T07:05:09;10.32;;;9.13;;
17592;SDS011;8915;51.760;14.300;2023-06-22T07:07:36;10.55;;;8.70;;
17592;SDS011;8915;51.760;14.300;2023-06-22T07:10:05;9.57;;;8.63;;
17592;SDS011;8915;51.760;14.300;2023-06-22T07:12:32;8.95;;;8.10;;
17592;SDS011;8915;51.760;14.300;2023-06-22T07:15:01;10.57;;;9.30;;
17592;SDS011;8915;51.760;14.300;2023-06-22T07:17:28;9.70;;;8.80;;
17592;SDS011;8915;51.760;14.300;2023-06-22T07:19:55;9.15;;;8.25;;
17592;SDS011;8915;51.760;14.300;2023-06-22T07:22:21;9.32;;;8.43;;
17592;SDS011;8915;51.760;14.300;2023-06-22T07:24:48;10.30;;;7.72;;
17592;SDS011;8915;51.760;14.300;2023-06-22T07:27:15;9.70;;;8.00;;
17592;SDS011;8915;51.760;14.300;2023-06-22T07:29:44;9.07;;;7.65;;
17592;SDS011;8915;51.760;14.300;2023-06-22T07:32:10;7.72;;;7.03;;
17592;SDS011;8915;51.760;14.300;2023-06-22T07:34:36;8.07;;;7.28;;
17592;SDS011;8915;51.760;14.300;2023-06-22T07:37:03;11.95;;;7.93;;
17592;SDS011;8915;51.760;14.300;2023-06-22T07:39:30;8.40;;;7.43;;
17592;SDS011;8915;51.760;14.300;2023-06-22T07:41:57;7.43;;;6.60;;
17592;SDS011;8915;51.760;14.300;2023-06-22T07:44:24;9.35;;;6.90;;
17592;SDS011;8915;51.760;14.300;2023-06-22T07:46:51;6.78;;;6.10;;
17592;SDS011;8915;51.760;14.300;2023-06-22T07:49:17;7.93;;;6.93;;
17592;SDS011;8915;51.760;14.300;2023-06-22T07:51:43;7.10;;;6.30;;
17592;SDS011;8915;51.760;14.300;2023-06-22T07:54:10;7.28;;;6.20;;
17592;SDS011;8915;51.760;14.300;2023-06-22T07:56:36;7.20;;;5.85;;
17592;SDS011;8915;51.760;14.300;2023-06-22T07:59:03;7.30;;;6.60;;
17592;SDS011;8915;51.760;14.300;2023-06-22T08:01:31;7.03;;;6.43;;
17592;SDS011;8915;51.760;14.300;2023-06-22T08:03:57;7.93;;;6.55;;
17592;SDS011;8915;51.760;14.300;2023-06-22T08:06:23;7.88;;;6.30;;
17592;SDS011;8915;51.760;14.300;2023-06-22T08:08:50;6.63;;;5.97;;
17592;SDS011;8915;51.760;14.300;2023-06-22T08:11:17;6.38;;;5.55;;
17592;SDS011;8915;51.760;14.300;2023-06-22T08:13:44;7.35;;;6.60;;
17592;SDS011;8915;51.760;14.300;2023-06-22T08:16:10;7.45;;;6.75;;
17592;SDS011;8915;51.760;14.300;2023-06-22T08:18:38;8.88;;;6.45;;
17592;SDS011;8915;51.760;14.300;2023-06-22T08:21:04;10.15;;;6.88;;
17592;SDS011;8915;51.760;14.300;2023-06-22T08:23:31;7.20;;;6.50;;
17592;SDS011;8915;51.760;14.300;2023-06-22T08:25:57;12.32;;;7.00;;
17592;SDS011;8915;51.760;14.300;2023-06-22T08:28:23;7.45;;;6.43;;
17592;SDS011;8915;51.760;14.300;2023-06-22T08:30:50;7.10;;;6.40;;
17592;SDS011;8915;51.760;14.300;2023-06-22T08:33:16;7.32;;;6.53;;
17592;SDS011;8915;51.760;14.300;2023-06-22T08:35:44;6.30;;;5.70;;
17592;SDS011;8915;51.760;14.300;2023-06-22T08:38:10;7.05;;;6.35;;
17592;SDS011;8915;51.760;14.300;2023-06-22T08:40:39;7.20;;;6.53;;
17592;SDS011;8915;51.760;14.300;2023-06-22T08:43:05;6.97;;;6.28;;
17592;SDS011;8915;51.760;14.300;2023-06-22T08:45:31;7.03;;;6.20;;
17592;SDS011;8915;51.760;14.300;2023-06-22T08:47:58;6.78;;;5.82;;
17592;SDS011;8915;51.760;14.300;2023-06-22T08:50:24;6.57;;;5.20;;
17592;SDS011;8915;51.760;14.300;2023-06-22T08:52:52;6.55;;;5.70;;
17592;SDS011;8915;51.760;14.300;2023-06-22T08:55:18;6.95;;;5.95;;
17592;SDS011;8915;51.760;14.300;2023-06-22T08:57:45;5.72;;;5.22;;
17592;SDS011;8915;51.760;14.300;2023-06-22T09:00:11;5.82;;;5.32;;
17592;SDS011;8915;51.760;14.300;2023-06-22T09:02:43;5.38;;;4.97;;
17592;SDS011;8915;51.760;14.300;2023-06-22T09:05:09;6.13;;;5.50;;
17592;SDS011;8915;51.760;14.300;2023-06-22T09:07:36;6.25;;;5.65;;
17592;SDS011;8915;51.760;14.300;2023-06-22T09:10:04;6.00;;;4.80;;
17592;SDS011;8915;51.760;14.300;2023-06-22T09:12:31;5.25;;;4.65;;
17592;SDS011;8915;51.760;14.300;2023-06-22T09:14:58;5.05;;;4.55;;
17592;SDS011;8915;51.760;14.300;2023-06-22T09:17:25;5.22;;;4.50;;
17592;SDS011;8915;51.760;14.300;2023-06-22T09:19:51;4.97;;;4.57;;
17592;SDS011;8915;51.760;14.300;2023-06-22T09:22:18;5.00;;;4.55;;
17592;SDS011;8915;51.760;14.300;2023-06-22T09:24:44;4.97;;;4.57;;
17592;SDS011;8915;51.760;14.300;2023-06-22T09:27:12;4.80;;;4.40;;
17592;SDS011;8915;51.760;14.300;2023-06-22T09:29:38;5.70;;;5.20;;
17592;SDS011;8915;51.760;14.300;2023-06-22T09:32:05;5.10;;;4.70;;
17592;SDS011;8915;51.760;14.300;2023-06-22T09:34:31;5.25;;;4.75;;
17592;SDS011;8915;51.760;14.300;2023-06-22T09:36:58;5.60;;;5.03;;
17592;SDS011;8915;51.760;14.300;2023-06-22T09:39:25;6.88;;;5.00;;
17592;SDS011;8915;51.760;14.300;2023-06-22T09:41:52;5.30;;;4.82;;
17592;SDS011;8915;51.760;14.300;2023-06-22T09:44:20;8.15;;;5.22;;
17592;SDS011;8915;51.760;14.300;2023-06-22T09:46:46;5.28;;;4.82;;
17592;SDS011;8915;51.760;14.300;2023-06-22T09:49:12;5.70;;;5.20;;
17592;SDS011;8915;51.760;14.300;2023-06-22T09:51:39;5.45;;;4.95;;
17592;SDS011;8915;51.760;14.300;2023-06-22T09:54:05;5.05;;;4.55;;
17592;SDS011;8915;51.760;14.300;2023-06-22T09:56:31;4.82;;;4.40;;
17592;SDS011;8915;51.760;14.300;2023-06-22T09:58:58;6.75;;;4.85;;
17592;SDS011;8915;51.760;14.300;2023-06-22T10:01:25;5.80;;;5.30;;
17592;SDS011;8915;51.760;14.300;2023-06-22T10:03:52;6.07;;;5.07;;
17592;SDS011;8915;51.760;14.300;2023-06-22T10:06:20;5.57;;;5.07;;
17592;SDS011;8915;51.760;14.300;2023-06-22T10:08:47;5.97;;;5.38;;
17592;SDS011;8915;51.760;14.300;2023-06-22T10:11:14;5.47;;;4.70;;
17592;SDS011;8915;51.760;14.300;2023-06-22T10:13:40;6.63;;;5.68;;
17592;SDS011;8915;51.760;14.300;2023-06-22T10:16:07;5.10;;;4.70;;
17592;SDS011;8915;51.760;14.300;2023-06-22T10:18:34;5.28;;;4.78;;
17592;SDS011;8915;51.760;14.300;2023-06-22T10:21:01;5.43;;;4.93;;
17592;SDS011;8915;51.760;14.300;2023-06-22T10:23:27;6.45;;;5.85;;
17592;SDS011;8915;51.760;14.300;2023-06-22T10:25:54;5.40;;;4.90;;
17592;SDS011;8915;51.760;14.300;2023-06-22T10:28:22;5.90;;;5.28;;
17592;SDS011;8915;51.760;14.300;2023-06-22T10:30:49;5.43;;;4.93;;
17592;SDS011;8915;51.760;14.300;2023-06-22T10:33:15;5.47;;;4.97;;
17592;SDS011;8915;51.760;14.300;2023-06-22T10:35:43;5.93;;;5.20;;
17592;SDS011;8915;51.760;14.300;2023-06-22T10:38:09;6.25;;;5.65;;
17592;SDS011;8915;51.760;14.300;2023-06-22T10:40:35;5.07;;;4.63;;
17592;SDS011;8915;51.760;14.300;2023-06-22T10:43:02;6.30;;;5.70;;
17592;SDS011;8915;51.760;14.300;2023-06-22T10:45:28;6.22;;;5.55;;
17592;SDS011;8915;51.760;14.300;2023-06-22T10:47:54;6.50;;;5.70;;
17592;SDS011;8915;51.760;14.300;2023-06-22T10:50:21;6.15;;;5.65;;
17592;SDS011;8915;51.760;14.300;2023-06-22T10:52:50;5.90;;;5.35;;
17592;SDS011;8915;51.760;14.300;2023-06-22T10:55:16;6.85;;;5.55;;
17592;SDS011;8915;51.760;14.300;2023-06-22T10:57:43;5.63;;;5.13;;
17592;SDS011;8915;51.760;14.300;2023-06-22T11:00:13;5.28;;;4.85;;
17592;SDS011;8915;51.760;14.300;2023-06-22T11:02:40;6.00;;;5.40;;
17592;SDS011;8915;51.760;14.300;2023-06-22T11:05:07;6.68;;;5.82;;
17592;SDS011;8915;51.760;14.300;2023-06-22T11:07:33;5.95;;;5.45;;
17592;SDS011;8915;51.760;14.300;2023-06-22T11:10:01;6.05;;;5.45;;
17592;SDS011;8915;51.760;14.300;2023-06-22T11:12:27;5.78;;;5.28;;
17592;SDS011;8915;51.760;14.300;2023-06-22T11:14:54;6.03;;;5.43;;
17592;SDS011;8915;51.760;14.300;2023-06-22T11:17:22;7.82;;;6.00;;
17592;SDS011;8915;51.760;14.300;2023-06-22T11:19:48;6.20;;;5.60;;
17592;SDS011;8915;51.760;14.300;2023-06-22T11:22:15;6.13;;;5.53;;
17592;SDS011;8915;51.760;14.300;2023-06-22T11:24:41;5.88;;;5.38;;
17592;SDS011;8915;51.760;14.300;2023-06-22T11:27:09;6.00;;;5.40;;
17592;SDS011;8915;51.760;14.300;2023-06-22T11:29:35;6.53;;;5.93;;
17592;SDS011;8915;51.760;14.300;2023-06-22T11:32:02;6.50;;;5.32;;
17592;SDS011;8915;51.760;14.300;2023-06-22T11:34:29;5.85;;;5.35;;
17592;SDS011;8915;51.760;14.300;2023-06-22T11:36:55;5.63;;;5.03;;
17592;SDS011;8915;51.760;14.300;2023-06-22T11:39:21;6.03;;;5.47;;
17592;SDS011;8915;51.760;14.300;2023-06-22T11:41:48;6.70;;;5.28;;
17592;SDS011;8915;51.760;14.300;2023-06-22T11:44:15;7.53;;;5.85;;
17592;SDS011;8915;51.760;14.300;2023-06-22T11:46:42;6.00;;;5.40;;
17592;SDS011;8915;51.760;14.300;2023-06-22T11:49:08;7.60;;;5.68;;
17592;SDS011;8915;51.760;14.300;2023-06-22T11:51:35;5.88;;;5.38;;
17592;SDS011;8915;51.760;14.300;2023-06-22T11:54:01;6.18;;;5.43;;
17592;SDS011;8915;51.760;14.300;2023-06-22T11:56:28;7.30;;;5.40;;
17592;SDS011;8915;51.760;14.300;2023-06-22T11:58:54;6.25;;;5.65;;
17592;SDS011;8915;51.760;14.300;2023-06-22T12:01:22;6.18;;;5.53;;
17592;SDS011;8915;51.760;14.300;2023-06-22T12:03:48;5.78;;;5.28;;
17592;SDS011;8915;51.760;14.300;2023-06-22T12:06:16;6.20;;;5.15;;
17592;SDS011;8915;51.760;14.300;2023-06-22T12:08:42;6.13;;;5.63;;
17592;SDS011;8915;51.760;14.300;2023-06-22T12:11:08;6.10;;;5.53;;
17592;SDS011;8915;51.760;14.300;2023-06-22T12:13:35;6.30;;;5.70;;
17592;SDS011;8915;51.760;14.300;2023-06-22T12:16:01;5.97;;;5.43;;
17592;SDS011;8915;51.760;14.300;2023-06-22T12:18:29;6.28;;;5.72;;
17592;SDS011;8915;51.760;14.300;2023-06-22T12:20:55;7.50;;;5.80;;
17592;SDS011;8915;51.760;14.300;2023-06-22T12:23:21;6.20;;;5.50;;
17592;SDS011;8915;51.760;14.300;2023-06-22T12:25:48;6.47;;;5.82;;
17592;SDS011;8915;51.760;14.300;2023-06-22T12:28:14;6.13;;;5.53;;
17592;SDS011;8915;51.760;14.300;2023-06-22T12:30:40;6.28;;;5.72;;
17592;SDS011;8915;51.760;14.300;2023-06-22T12:33:07;6.10;;;5.50;;
17592;SDS011;8915;51.760;14.300;2023-06-22T12:35:35;8.38;;;6.00;;
17592;SDS011;8915;51.760;14.300;2023-06-22T12:38:01;6.18;;;5.63;;
17592;SDS011;8915;51.760;14.300;2023-06-22T12:40:28;6.05;;;5.47;;
17592;SDS011;8915;51.760;14.300;2023-06-22T12:42:54;5.97;;;5.47;;
17592;SDS011;8915;51.760;14.300;2023-06-22T12:45:20;6.28;;;5.68;;
17592;SDS011;8915;51.760;14.300;2023-06-22T12:47:47;6.10;;;5.55;;
17592;SDS011;8915;51.760;14.300;2023-06-22T12:50:15;6.22;;;5.60;;
17592;SDS011;8915;51.760;14.300;2023-06-22T12:52:42;6.07;;;5.53;;
17592;SDS011;8915;51.760;14.300;2023-06-22T12:55:09;6.05;;;5.55;;
17592;SDS011;8915;51.760;14.300;2023-06-22T12:57:35;5.82;;;5.32;;
17592;SDS011;8915;51.760;14.300;2023-06-22T13:00:02;5.30;;;4.90;;
17592;SDS011;8915;51.760;14.300;2023-06-22T13:02:30;6.47;;;5.88;;
17592;SDS011;8915;51.760;14.300;2023-06-22T13:04:56;6.07;;;5.57;;
17592;SDS011;8915;51.760;14.300;2023-06-22T13:07:23;7.05;;;5.97;;
17592;SDS011;8915;51.760;14.300;2023-06-22T13:09:50;6.53;;;5.60;;
17592;SDS011;8915;51.760;14.300;2023-06-22T13:12:17;6.53;;;5.93;;
17592;SDS011;8915;51.760;14.300;2023-06-22T13:14:44;6.25;;;5.65;;
17592;SDS011;8915;51.760;14.300;2023-06-22T13:17:11;8.40;;;5.95;;
17592;SDS011;8915;51.760;14.300;2023-06-22T13:19:39;6.70;;;5.85;;
17592;SDS011;8915;51.760;14.300;2023-06-22T13:22:09;7.38;;;5.53;;
17592;SDS011;8915;51.760;14.300;2023-06-22T13:24:53;8.43;;;5.80;;
17592;SDS011;8915;51.760;14.300;2023-06-22T13:27:20;6.05;;;5.47;;
17592;SDS011;8915;51.760;14.300;2023-06-22T13:29:46;8.75;;;5.70;;
17592;SDS011;8915;51.760;14.300;2023-06-22T13:32:12;6.43;;;5.80;;
17592;SDS011;8915;51.760;14.300;2023-06-22T13:34:39;5.80;;;5.30;;
17592;SDS011;8915;51.760;14.300;2023-06-22T13:37:05;6.57;;;5.43;;
17592;SDS011;8915;51.760;14.300;2023-06-22T13:39:32;8.27;;;5.70;;
17592;SDS011;8915;51.760;14.300;2023-06-22T13:42:00;6.05;;;5.45;;
17592;SDS011;8915;51.760;14.300;2023-06-22T13:44:26;6.40;;;5.80;;
17592;SDS011;8915;51.760;14.300;2023-06-22T13:46:53;5.93;;;5.43;;
17592;SDS011;8915;51.760;14.300;2023-06-22T13:49:20;6.65;;;6.05;;
17592;SDS011;8915;51.760;14.300;2023-06-22T13:51:47;6.90;;;6.25;;
17592;SDS011;8915;51.760;14.300;2023-06-22T13:54:14;9.20;;;6.35;;
17592;SDS011;8915;51.760;14.300;2023-06-22T13:56:40;5.97;;;5.43;;
17592;SDS011;8915;51.760;14.300;2023-06-22T13:59:08;5.90;;;5.30;;
17592;SDS011;8915;51.760;14.300;2023-06-22T14:01:35;6.15;;;5.55;;
17592;SDS011;8915;51.760;14.300;2023-06-22T14:04:03;7.03;;;6.18;;
17592;SDS011;8915;51.760;14.300;2023-06-22T14:06:30;6.47;;;5.88;;
17592;SDS011;8915;51.760;14.300;2023-06-22T14:08:56;6.38;;;5.78;;
17592;SDS011;8915;51.760;14.300;2023-06-22T14:11:24;6.75;;;6.10;;
17592;SDS011;8915;51.760;14.300;2023-06-22T14:13:50;7.32;;;5.95;;
17592;SDS011;8915;51.760;14.300;2023-06-22T14:16:18;6.30;;;5.60;;
17592;SDS011;8915;51.760;14.300;2023-06-22T14:18:44;6.10;;;5.57;;
17592;SDS011;8915;51.760;14.300;2023-06-22T14:21:11;7.13;;;6.47;;
17592;SDS011;8915;51.760;14.300;2023-06-22T14:23:38;6.50;;;5.40;;
17592;SDS011;8915;51.760;14.300;2023-06-22T14:26:04;6.30;;;5.70;;
17592;SDS011;8915;51.760;14.300;2023-06-22T14:28:30;6.70;;;6.13;;
17592;SDS011;8915;51.760;14.300;2023-06-22T14:30:57;6.65;;;5.95;;
17592;SDS011;8915;51.760;14.300;2023-06-22T14:33:25;6.72;;;6.07;;
17592;SDS011;8915;51.760;14.300;2023-06-22T14:35:51;6.55;;;5.95;;